sensor_id;sensor_type;location;lat;lon;timestamp;P1;durP1;ratioP1;P2;durP2;ratioP2
14143;SDS011;7152;48.348;10.980;2023-08-01T00:01:27;3.47;;;2.70;;
14143;SDS011;7152;48.348;10.980;2023-08-01T00:03:54;6.27;;;3.53;;
14143;SDS011;7152;48.348;10.980;2023-08-01T00:06:19;3.30;;;3.00;;
14143;SDS011;7152;48.348;10.980;2023-08-01T00:08:47;6.07;;;3.30;;
14143;SDS011;7152;48.348;10.980;2023-08-01T00:11:13;3.77;;;3.07;;
14143;SDS011;7152;48.348;10.980;2023-08-01T00:13:40;3.70;;;3.37;;
14143;SDS011;7152;48.348;10.980;2023-08-01T00:16:06;4.53;;;3.40;;
14143;SDS011;7152;48.348;10.980;2023-08-01T00:18:32;3.23;;;2.93;;
14143;SDS011;7152;48.348;10.980;2023-08-01T00:20:57;4.07;;;3.20;;
14143;SDS011;7152;48.348;10.980;2023-08-01T00:23:24;4.03;;;3.30;;
14143;SDS011;7152;48.348;10.980;2023-08-01T00:25:50;3.20;;;2.90;;
14143;SDS011;7152;48.348;10.980;2023-08-01T00:28:17;4.67;;;3.07;;
14143;SDS011;7152;48.348;10.980;2023-08-01T00:30:43;3.83;;;2.97;;
14143;SDS011;7152;48.348;10.980;2023-08-01T00:33:09;3.53;;;3.07;;
14143;SDS011;7152;48.348;10.980;2023-08-01T00:35:35;3.70;;;3.17;;
14143;SDS011;7152;48.348;10.980;2023-08-01T00:38:01;3.70;;;3.40;;
14143;SDS011;7152;48.348;10.980;2023-08-01T00:40:30;3.57;;;3.27;;
14143;SDS011;7152;48.348;10.980;2023-08-01T00:42:57;4.53;;;3.23;;
14143;SDS011;7152;48.348;10.980;2023-08-01T00:45:23;3.93;;;3.27;;
14143;SDS011;7152;48.348;10.980;2023-08-01T00:47:52;3.90;;;2.83;;
14143;SDS011;7152;48.348;10.980;2023-08-01T00:50:18;3.53;;;3.23;;
14143;SDS011;7152;48.348;10.980;2023-08-01T00:52:46;5.07;;;3.50;;
14143;SDS011;7152;48.348;10.980;2023-08-01T00:55:12;4.20;;;3.37;;
14143;SDS011;7152;48.348;10.980;2023-08-01T00:57:39;3.80;;;3.07;;
14143;SDS011;7152;48.348;10.980;2023-08-01T01:00:06;4.43;;;3.03;;
14143;SDS011;7152;48.348;10.980;2023-08-01T01:02:32;4.67;;;3.27;;
14143;SDS011;7152;48.348;10.980;2023-08-01T01:04:59;4.93;;;2.90;;
14143;SDS011;7152;48.348;10.980;2023-08-01T01:07:25;3.70;;;2.80;;
14143;SDS011;7152;48.348;10.980;2023-08-01T01:09:52;4.47;;;3.30;;
14143;SDS011;7152;48.348;10.980;2023-08-01T01:12:18;4.60;;;3.10;;
14143;SDS011;7152;48.348;10.980;2023-08-01T01:14:44;4.50;;;2.93;;
14143;SDS011;7152;48.348;10.980;2023-08-01T01:17:10;3.87;;;2.90;;
14143;SDS011;7152;48.348;10.980;2023-08-01T01:19:36;4.63;;;3.13;;
14143;SDS011;7152;48.348;10.980;2023-08-01T01:22:02;5.67;;;3.07;;
14143;SDS011;7152;48.348;10.980;2023-08-01T01:24:30;4.03;;;2.70;;
14143;SDS011;7152;48.348;10.980;2023-08-01T01:26:57;4.43;;;3.00;;
14143;SDS011;7152;48.348;10.980;2023-08-01T01:29:26;4.80;;;3.00;;
14143;SDS011;7152;48.348;10.980;2023-08-01T01:31:52;7.10;;;2.90;;
14143;SDS011;7152;48.348;10.980;2023-08-01T01:34:18;3.63;;;2.83;;
14143;SDS011;7152;48.348;10.980;2023-08-01T01:36:44;3.27;;;2.97;;
14143;SDS011;7152;48.348;10.980;2023-08-01T01:39:10;3.83;;;2.97;;
14143;SDS011;7152;48.348;10.980;2023-08-01T01:41:36;5.60;;;2.90;;
14143;SDS011;7152;48.348;10.980;2023-08-01T01:44:02;3.83;;;2.80;;
14143;SDS011;7152;48.348;10.980;2023-08-01T01:46:27;3.47;;;3.00;;
14143;SDS011;7152;48.348;10.980;2023-08-01T01:48:53;6.17;;;3.10;;
14143;SDS011;7152;48.348;10.980;2023-08-01T01:51:20;3.13;;;2.83;;
14143;SDS011;7152;48.348;10.980;2023-08-01T01:53:46;3.77;;;3.00;;
14143;SDS011;7152;48.348;10.980;2023-08-01T01:56:12;4.47;;;3.00;;
14143;SDS011;7152;48.348;10.980;2023-08-01T01:58:38;6.53;;;3.27;;
14143;SDS011;7152;48.348;10.980;2023-08-01T02:01:04;3.70;;;2.77;;
14143;SDS011;7152;48.348;10.980;2023-08-01T02:03:30;3.43;;;2.80;;
14143;SDS011;7152;48.348;10.980;2023-08-01T02:05:56;3.60;;;2.87;;
14143;SDS011;7152;48.348;10.980;2023-08-01T02:08:21;4.93;;;3.00;;
14143;SDS011;7152;48.348;10.980;2023-08-01T02:10:48;4.20;;;3.20;;
14143;SDS011;7152;48.348;10.980;2023-08-01T02:13:15;3.60;;;2.70;;
14143;SDS011;7152;48.348;10.980;2023-08-01T02:15:41;4.37;;;3.07;;
14143;SDS011;7152;48.348;10.980;2023-08-01T02:18:07;3.70;;;3.27;;
14143;SDS011;7152;48.348;10.980;2023-08-01T02:20:33;3.10;;;2.80;;
14143;SDS011;7152;48.348;10.980;2023-08-01T02:22:59;4.30;;;3.07;;
14143;SDS011;7152;48.348;10.980;2023-08-01T02:25:25;3.63;;;2.73;;
14143;SDS011;7152;48.348;10.980;2023-08-01T02:27:51;2.90;;;2.60;;
14143;SDS011;7152;48.348;10.980;2023-08-01T02:30:17;5.20;;;2.87;;
14143;SDS011;7152;48.348;10.980;2023-08-01T02:32:43;3.10;;;2.70;;
14143;SDS011;7152;48.348;10.980;2023-08-01T02:35:09;4.50;;;2.87;;
14143;SDS011;7152;48.348;10.980;2023-08-01T02:37:35;4.40;;;3.00;;
14143;SDS011;7152;48.348;10.980;2023-08-01T02:40:02;3.90;;;3.00;;
14143;SDS011;7152;48.348;10.980;2023-08-01T02:42:33;4.63;;;3.20;;
14143;SDS011;7152;48.348;10.980;2023-08-01T02:44:59;3.70;;;3.17;;
14143;SDS011;7152;48.348;10.980;2023-08-01T02:47:25;4.33;;;3.30;;
14143;SDS011;7152;48.348;10.980;2023-08-01T02:49:51;4.93;;;3.03;;
14143;SDS011;7152;48.348;10.980;2023-08-01T02:52:16;4.63;;;3.60;;
14143;SDS011;7152;48.348;10.980;2023-08-01T02:54:42;4.87;;;3.57;;
14143;SDS011;7152;48.348;10.980;2023-08-01T02:57:08;3.90;;;3.50;;
14143;SDS011;7152;48.348;10.980;2023-08-01T02:59:34;5.73;;;3.53;;
14143;SDS011;7152;48.348;10.980;2023-08-01T03:02:00;4.27;;;3.67;;
14143;SDS011;7152;48.348;10.980;2023-08-01T03:04:27;5.20;;;3.80;;
14143;SDS011;7152;48.348;10.980;2023-08-01T03:06:53;4.60;;;3.80;;
14143;SDS011;7152;48.348;10.980;2023-08-01T03:09:18;5.33;;;3.90;;
14143;SDS011;7152;48.348;10.980;2023-08-01T03:11:44;4.30;;;3.80;;
14143;SDS011;7152;48.348;10.980;2023-08-01T03:14:10;4.83;;;3.77;;
14143;SDS011;7152;48.348;10.980;2023-08-01T03:16:36;4.53;;;3.90;;
14143;SDS011;7152;48.348;10.980;2023-08-01T03:19:02;5.47;;;3.73;;
14143;SDS011;7152;48.348;10.980;2023-08-01T03:21:33;6.00;;;4.13;;
14143;SDS011;7152;48.348;10.980;2023-08-01T03:23:59;5.87;;;4.07;;
14143;SDS011;7152;48.348;10.980;2023-08-01T03:26:27;5.17;;;4.00;;
14143;SDS011;7152;48.348;10.980;2023-08-01T03:28:54;5.10;;;4.43;;
14143;SDS011;7152;48.348;10.980;2023-08-01T03:31:21;7.00;;;4.67;;
14143;SDS011;7152;48.348;10.980;2023-08-01T03:33:50;6.00;;;4.57;;
14143;SDS011;7152;48.348;10.980;2023-08-01T03:36:15;7.00;;;4.60;;
14143;SDS011;7152;48.348;10.980;2023-08-01T03:38:41;8.03;;;4.77;;
14143;SDS011;7152;48.348;10.980;2023-08-01T03:41:07;5.67;;;5.10;;
14143;SDS011;7152;48.348;10.980;2023-08-01T03:43:33;8.60;;;5.53;;
14143;SDS011;7152;48.348;10.980;2023-08-01T03:45:59;8.33;;;6.07;;
14143;SDS011;7152;48.348;10.980;2023-08-01T03:48:24;7.37;;;5.60;;
14143;SDS011;7152;48.348;10.980;2023-08-01T03:50:50;7.27;;;5.17;;
14143;SDS011;7152;48.348;10.980;2023-08-01T03:53:16;8.10;;;5.73;;
14143;SDS011;7152;48.348;10.980;2023-08-01T03:55:43;5.40;;;4.90;;
14143;SDS011;7152;48.348;10.980;2023-08-01T03:58:09;7.30;;;5.30;;
14143;SDS011;7152;48.348;10.980;2023-08-01T04:00:35;7.67;;;5.77;;
14143;SDS011;7152;48.348;10.980;2023-08-01T04:03:01;10.40;;;6.00;;
14143;SDS011;7152;48.348;10.980;2023-08-01T04:05:27;7.70;;;5.47;;
14143;SDS011;7152;48.348;10.980;2023-08-01T04:07:53;7.63;;;6.43;;
14143;SDS011;7152;48.348;10.980;2023-08-01T04:10:20;7.93;;;6.00;;
14143;SDS011;7152;48.348;10.980;2023-08-01T04:12:47;9.50;;;6.23;;
14143;SDS011;7152;48.348;10.980;2023-08-01T04:15:12;8.20;;;5.63;;
14143;SDS011;7152;48.348;10.980;2023-08-01T04:17:38;8.90;;;6.00;;
14143;SDS011;7152;48.348;10.980;2023-08-01T04:20:04;8.47;;;6.40;;
14143;SDS011;7152;48.348;10.980;2023-08-01T04:22:31;8.33;;;6.50;;
14143;SDS011;7152;48.348;10.980;2023-08-01T04:24:57;8.50;;;6.20;;
14143;SDS011;7152;48.348;10.980;2023-08-01T04:27:22;8.30;;;6.07;;
14143;SDS011;7152;48.348;10.980;2023-08-01T04:29:48;9.07;;;6.43;;
14143;SDS011;7152;48.348;10.980;2023-08-01T04:32:14;10.43;;;6.03;;
14143;SDS011;7152;48.348;10.980;2023-08-01T04:34:40;8.23;;;5.87;;
14143;SDS011;7152;48.348;10.980;2023-08-01T04:37:07;13.37;;;6.20;;
14143;SDS011;7152;48.348;10.980;2023-08-01T04:39:33;8.50;;;6.07;;
14143;SDS011;7152;48.348;10.980;2023-08-01T04:41:59;8.53;;;6.30;;
14143;SDS011;7152;48.348;10.980;2023-08-01T04:44:25;8.47;;;6.80;;
14143;SDS011;7152;48.348;10.980;2023-08-01T04:46:50;10.47;;;6.63;;
14143;SDS011;7152;48.348;10.980;2023-08-01T04:49:16;9.23;;;6.53;;
14143;SDS011;7152;48.348;10.980;2023-08-01T04:51:42;7.43;;;6.20;;
14143;SDS011;7152;48.348;10.980;2023-08-01T04:54:08;9.33;;;6.90;;
14143;SDS011;7152;48.348;10.980;2023-08-01T04:56:33;9.20;;;6.20;;
14143;SDS011;7152;48.348;10.980;2023-08-01T04:58:59;7.00;;;6.30;;
14143;SDS011;7152;48.348;10.980;2023-08-01T05:01:27;8.63;;;5.90;;
14143;SDS011;7152;48.348;10.980;2023-08-01T05:03:53;7.73;;;6.00;;
14143;SDS011;7152;48.348;10.980;2023-08-01T05:06:18;6.93;;;6.23;;
14143;SDS011;7152;48.348;10.980;2023-08-01T05:08:44;7.67;;;6.30;;
14143;SDS011;7152;48.348;10.980;2023-08-01T05:11:10;8.77;;;6.60;;
14143;SDS011;7152;48.348;10.980;2023-08-01T05:13:36;9.43;;;7.67;;
14143;SDS011;7152;48.348;10.980;2023-08-01T05:16:02;9.70;;;7.40;;
14143;SDS011;7152;48.348;10.980;2023-08-01T05:18:28;7.60;;;6.40;;
14143;SDS011;7152;48.348;10.980;2023-08-01T05:20:54;8.63;;;6.30;;
14143;SDS011;7152;48.348;10.980;2023-08-01T05:23:20;7.20;;;6.50;;
14143;SDS011;7152;48.348;10.980;2023-08-01T05:25:45;9.60;;;6.83;;
14143;SDS011;7152;48.348;10.980;2023-08-01T05:28:11;9.33;;;6.93;;
14143;SDS011;7152;48.348;10.980;2023-08-01T05:30:37;8.17;;;7.13;;
14143;SDS011;7152;48.348;10.980;2023-08-01T05:33:03;9.93;;;7.07;;
14143;SDS011;7152;48.348;10.980;2023-08-01T05:35:29;7.30;;;6.60;;
14143;SDS011;7152;48.348;10.980;2023-08-01T05:37:55;9.33;;;7.33;;
14143;SDS011;7152;48.348;10.980;2023-08-01T05:40:21;8.37;;;7.57;;
14143;SDS011;7152;48.348;10.980;2023-08-01T05:42:47;8.03;;;7.23;;
14143;SDS011;7152;48.348;10.980;2023-08-01T05:45:13;8.13;;;6.83;;
14143;SDS011;7152;48.348;10.980;2023-08-01T05:47:38;9.73;;;6.87;;
14143;SDS011;7152;48.348;10.980;2023-08-01T05:50:05;8.27;;;7.13;;
14143;SDS011;7152;48.348;10.980;2023-08-01T05:52:32;8.13;;;6.90;;
14143;SDS011;7152;48.348;10.980;2023-08-01T05:54:58;8.50;;;7.43;;
14143;SDS011;7152;48.348;10.980;2023-08-01T05:57:26;7.60;;;5.57;;
14143;SDS011;7152;48.348;10.980;2023-08-01T05:59:52;13.23;;;6.57;;
14143;SDS011;7152;48.348;10.980;2023-08-01T06:02:18;6.57;;;5.80;;
14143;SDS011;7152;48.348;10.980;2023-08-01T06:04:44;8.23;;;6.00;;
14143;SDS011;7152;48.348;10.980;2023-08-01T06:07:10;9.43;;;5.77;;
14143;SDS011;7152;48.348;10.980;2023-08-01T06:09:36;6.07;;;5.40;;
14143;SDS011;7152;48.348;10.980;2023-08-01T06:12:01;6.70;;;4.90;;
14143;SDS011;7152;48.348;10.980;2023-08-01T06:14:27;7.10;;;4.50;;
14143;SDS011;7152;48.348;10.980;2023-08-01T06:16:53;6.30;;;4.50;;
14143;SDS011;7152;48.348;10.980;2023-08-01T06:19:19;7.17;;;4.73;;
14143;SDS011;7152;48.348;10.980;2023-08-01T06:21:45;5.57;;;4.70;;
14143;SDS011;7152;48.348;10.980;2023-08-01T06:24:13;6.27;;;4.90;;
14143;SDS011;7152;48.348;10.980;2023-08-01T06:26:39;5.37;;;4.73;;
14143;SDS011;7152;48.348;10.980;2023-08-01T06:29:04;7.00;;;4.97;;
14143;SDS011;7152;48.348;10.980;2023-08-01T06:31:30;5.30;;;4.53;;
14143;SDS011;7152;48.348;10.980;2023-08-01T06:33:56;5.90;;;4.57;;
14143;SDS011;7152;48.348;10.980;2023-08-01T06:36:22;5.23;;;4.10;;
14143;SDS011;7152;48.348;10.980;2023-08-01T06:38:49;5.60;;;4.37;;
14143;SDS011;7152;48.348;10.980;2023-08-01T06:41:14;6.37;;;4.20;;
14143;SDS011;7152;48.348;10.980;2023-08-01T06:43:40;5.07;;;4.10;;
14143;SDS011;7152;48.348;10.980;2023-08-01T06:46:06;5.23;;;4.40;;
14143;SDS011;7152;48.348;10.980;2023-08-01T06:48:32;4.90;;;4.50;;
14143;SDS011;7152;48.348;10.980;2023-08-01T06:51:01;5.50;;;3.93;;
14143;SDS011;7152;48.348;10.980;2023-08-01T06:53:29;6.70;;;4.23;;
14143;SDS011;7152;48.348;10.980;2023-08-01T06:55:55;5.50;;;4.13;;
14143;SDS011;7152;48.348;10.980;2023-08-01T06:58:21;6.70;;;4.07;;
14143;SDS011;7152;48.348;10.980;2023-08-01T07:00:47;4.93;;;3.93;;
14143;SDS011;7152;48.348;10.980;2023-08-01T07:03:13;6.63;;;3.80;;
14143;SDS011;7152;48.348;10.980;2023-08-01T07:05:38;6.33;;;3.97;;
14143;SDS011;7152;48.348;10.980;2023-08-01T07:08:04;4.33;;;3.87;;
14143;SDS011;7152;48.348;10.980;2023-08-01T07:10:30;5.20;;;3.70;;
14143;SDS011;7152;48.348;10.980;2023-08-01T07:13:00;4.87;;;3.90;;
14143;SDS011;7152;48.348;10.980;2023-08-01T07:15:29;4.80;;;3.80;;
14143;SDS011;7152;48.348;10.980;2023-08-01T07:17:55;5.73;;;4.00;;
14143;SDS011;7152;48.348;10.980;2023-08-01T07:20:21;3.40;;;3.07;;
14143;SDS011;7152;48.348;10.980;2023-08-01T07:22:47;5.37;;;3.97;;
14143;SDS011;7152;48.348;10.980;2023-08-01T07:25:14;5.07;;;3.73;;
14143;SDS011;7152;48.348;10.980;2023-08-01T07:27:41;3.67;;;3.37;;
14143;SDS011;7152;48.348;10.980;2023-08-01T07:30:07;4.33;;;3.50;;
14143;SDS011;7152;48.348;10.980;2023-08-01T07:32:35;3.87;;;3.50;;
14143;SDS011;7152;48.348;10.980;2023-08-01T07:35:03;4.33;;;3.47;;
14143;SDS011;7152;48.348;10.980;2023-08-01T07:37:35;5.37;;;3.60;;
14143;SDS011;7152;48.348;10.980;2023-08-01T07:40:03;5.03;;;3.27;;
14143;SDS011;7152;48.348;10.980;2023-08-01T07:42:33;4.20;;;3.30;;
14143;SDS011;7152;48.348;10.980;2023-08-01T07:44:59;5.40;;;3.60;;
14143;SDS011;7152;48.348;10.980;2023-08-01T07:47:25;4.90;;;3.53;;
14143;SDS011;7152;48.348;10.980;2023-08-01T07:49:51;4.40;;;3.80;;
14143;SDS011;7152;48.348;10.980;2023-08-01T07:52:17;5.07;;;3.60;;
14143;SDS011;7152;48.348;10.980;2023-08-01T07:54:43;6.17;;;3.47;;
14143;SDS011;7152;48.348;10.980;2023-08-01T07:57:09;4.43;;;3.47;;
14143;SDS011;7152;48.348;10.980;2023-08-01T07:59:35;4.57;;;3.77;;
14143;SDS011;7152;48.348;10.980;2023-08-01T08:02:00;5.57;;;3.97;;
14143;SDS011;7152;48.348;10.980;2023-08-01T08:04:26;3.87;;;3.17;;
14143;SDS011;7152;48.348;10.980;2023-08-01T08:06:52;6.33;;;3.73;;
14143;SDS011;7152;48.348;10.980;2023-08-01T08:09:20;5.13;;;3.23;;
14143;SDS011;7152;48.348;10.980;2023-08-01T08:11:48;5.33;;;3.27;;
14143;SDS011;7152;48.348;10.980;2023-08-01T08:14:13;3.90;;;3.30;;
14143;SDS011;7152;48.348;10.980;2023-08-01T08:16:40;4.47;;;3.70;;
14143;SDS011;7152;48.348;10.980;2023-08-01T08:19:06;3.27;;;2.83;;
14143;SDS011;7152;48.348;10.980;2023-08-01T08:21:32;3.67;;;3.30;;
14143;SDS011;7152;48.348;10.980;2023-08-01T08:23:58;4.67;;;3.70;;
14143;SDS011;7152;48.348;10.980;2023-08-01T08:26:25;4.77;;;3.30;;
14143;SDS011;7152;48.348;10.980;2023-08-01T08:28:51;4.47;;;3.33;;
14143;SDS011;7152;48.348;10.980;2023-08-01T08:31:17;3.67;;;2.93;;
14143;SDS011;7152;48.348;10.980;2023-08-01T08:33:43;5.33;;;3.70;;
14143;SDS011;7152;48.348;10.980;2023-08-01T08:36:09;4.27;;;2.83;;
14143;SDS011;7152;48.348;10.980;2023-08-01T08:38:35;4.50;;;3.50;;
14143;SDS011;7152;48.348;10.980;2023-08-01T08:41:11;3.47;;;3.00;;
14143;SDS011;7152;48.348;10.980;2023-08-01T08:43:39;3.73;;;3.07;;
14143;SDS011;7152;48.348;10.980;2023-08-01T08:46:07;6.13;;;3.43;;
14143;SDS011;7152;48.348;10.980;2023-08-01T08:48:34;4.67;;;3.60;;
14143;SDS011;7152;48.348;10.980;2023-08-01T08:51:02;4.67;;;3.17;;
14143;SDS011;7152;48.348;10.980;2023-08-01T08:53:31;4.27;;;2.90;;
14143;SDS011;7152;48.348;10.980;2023-08-01T08:55:59;3.23;;;2.93;;
14143;SDS011;7152;48.348;10.980;2023-08-01T08:58:25;4.33;;;3.10;;
14143;SDS011;7152;48.348;10.980;2023-08-01T09:00:52;6.57;;;3.47;;
14143;SDS011;7152;48.348;10.980;2023-08-01T09:03:18;5.67;;;2.97;;
14143;SDS011;7152;48.348;10.980;2023-08-01T09:05:51;3.93;;;3.27;;
14143;SDS011;7152;48.348;10.980;2023-08-01T09:08:25;3.80;;;3.00;;
14143;SDS011;7152;48.348;10.980;2023-08-01T09:10:55;4.00;;;2.77;;
14143;SDS011;7152;48.348;10.980;2023-08-01T09:13:21;3.73;;;2.90;;
14143;SDS011;7152;48.348;10.980;2023-08-01T09:15:47;4.37;;;2.87;;
14143;SDS011;7152;48.348;10.980;2023-08-01T09:18:13;4.13;;;2.83;;
14143;SDS011;7152;48.348;10.980;2023-08-01T09:20:49;3.70;;;3.20;;
14143;SDS011;7152;48.348;10.980;2023-08-01T09:23:15;3.30;;;2.90;;
14143;SDS011;7152;48.348;10.980;2023-08-01T09:25:44;4.00;;;2.97;;
14143;SDS011;7152;48.348;10.980;2023-08-01T09:30:46;3.27;;;2.97;;
14143;SDS011;7152;48.348;10.980;2023-08-01T09:33:16;3.63;;;3.10;;
14143;SDS011;7152;48.348;10.980;2023-08-01T09:35:43;3.97;;;3.20;;
14143;SDS011;7152;48.348;10.980;2023-08-01T09:38:14;4.23;;;3.13;;
14143;SDS011;7152;48.348;10.980;2023-08-01T09:40:43;4.47;;;3.00;;
14143;SDS011;7152;48.348;10.980;2023-08-01T09:43:13;5.37;;;3.60;;
14143;SDS011;7152;48.348;10.980;2023-08-01T09:45:49;4.00;;;3.23;;
14143;SDS011;7152;48.348;10.980;2023-08-01T09:48:25;3.40;;;3.07;;
14143;SDS011;7152;48.348;10.980;2023-08-01T09:50:52;3.93;;;3.30;;
14143;SDS011;7152;48.348;10.980;2023-08-01T09:53:31;3.60;;;3.20;;
14143;SDS011;7152;48.348;10.980;2023-08-01T09:55:58;4.23;;;3.57;;
14143;SDS011;7152;48.348;10.980;2023-08-01T09:58:28;5.50;;;3.27;;
14143;SDS011;7152;48.348;10.980;2023-08-01T10:00:59;5.90;;;3.60;;
14143;SDS011;7152;48.348;10.980;2023-08-01T10:03:29;4.27;;;3.57;;
14143;SDS011;7152;48.348;10.980;2023-08-01T10:05:55;3.27;;;2.87;;
14143;SDS011;7152;48.348;10.980;2023-08-01T10:08:23;3.90;;;3.10;;
14143;SDS011;7152;48.348;10.980;2023-08-01T10:10:49;3.90;;;3.27;;
14143;SDS011;7152;48.348;10.980;2023-08-01T10:13:16;5.03;;;3.23;;
14143;SDS011;7152;48.348;10.980;2023-08-01T10:15:43;5.37;;;3.60;;
14143;SDS011;7152;48.348;10.980;2023-08-01T10:18:10;4.00;;;3.60;;
14143;SDS011;7152;48.348;10.980;2023-08-01T10:20:36;5.07;;;3.90;;
14143;SDS011;7152;48.348;10.980;2023-08-01T10:23:03;4.77;;;3.70;;
14143;SDS011;7152;48.348;10.980;2023-08-01T10:25:31;3.97;;;3.57;;
14143;SDS011;7152;48.348;10.980;2023-08-01T10:30:28;5.77;;;4.10;;
14143;SDS011;7152;48.348;10.980;2023-08-01T10:32:55;5.67;;;3.57;;
14143;SDS011;7152;48.348;10.980;2023-08-01T10:35:31;6.37;;;3.87;;
14143;SDS011;7152;48.348;10.980;2023-08-01T10:38:08;4.23;;;3.30;;
14143;SDS011;7152;48.348;10.980;2023-08-01T10:40:36;5.37;;;3.70;;
14143;SDS011;7152;48.348;10.980;2023-08-01T10:43:04;4.43;;;3.90;;
14143;SDS011;7152;48.348;10.980;2023-08-01T10:45:30;4.13;;;3.67;;
14143;SDS011;7152;48.348;10.980;2023-08-01T10:48:29;5.97;;;3.87;;
14143;SDS011;7152;48.348;10.980;2023-08-01T10:50:54;4.37;;;3.00;;
14143;SDS011;7152;48.348;10.980;2023-08-01T10:53:22;4.60;;;2.87;;
14143;SDS011;7152;48.348;10.980;2023-08-01T10:55:48;3.53;;;2.90;;
14143;SDS011;7152;48.348;10.980;2023-08-01T10:58:14;3.87;;;2.87;;
14143;SDS011;7152;48.348;10.980;2023-08-01T11:00:41;4.90;;;3.10;;
14143;SDS011;7152;48.348;10.980;2023-08-01T11:03:08;3.83;;;2.90;;
14143;SDS011;7152;48.348;10.980;2023-08-01T11:05:33;2.97;;;2.60;;
14143;SDS011;7152;48.348;10.980;2023-08-01T11:08:00;4.63;;;2.37;;
14143;SDS011;7152;48.348;10.980;2023-08-01T11:10:28;3.00;;;2.20;;
14143;SDS011;7152;48.348;10.980;2023-08-01T11:12:55;2.50;;;2.30;;
14143;SDS011;7152;48.348;10.980;2023-08-01T11:15:22;3.63;;;2.03;;
14143;SDS011;7152;48.348;10.980;2023-08-01T11:17:49;3.47;;;2.53;;
14143;SDS011;7152;48.348;10.980;2023-08-01T11:20:16;3.20;;;2.53;;
14143;SDS011;7152;48.348;10.980;2023-08-01T11:22:56;3.33;;;2.30;;
14143;SDS011;7152;48.348;10.980;2023-08-01T11:28:08;3.30;;;2.37;;
14143;SDS011;7152;48.348;10.980;2023-08-01T11:30:35;2.73;;;2.47;;
14143;SDS011;7152;48.348;10.980;2023-08-01T11:33:02;3.83;;;2.33;;
14143;SDS011;7152;48.348;10.980;2023-08-01T11:35:38;4.13;;;2.10;;
14143;SDS011;7152;48.348;10.980;2023-08-01T11:38:05;3.70;;;2.40;;
14143;SDS011;7152;48.348;10.980;2023-08-01T11:40:31;2.37;;;2.17;;
14143;SDS011;7152;48.348;10.980;2023-08-01T11:42:58;5.50;;;3.20;;
14143;SDS011;7152;48.348;10.980;2023-08-01T11:45:24;2.90;;;2.40;;
14143;SDS011;7152;48.348;10.980;2023-08-01T11:47:50;5.03;;;2.60;;
14143;SDS011;7152;48.348;10.980;2023-08-01T11:50:20;3.53;;;2.60;;
14143;SDS011;7152;48.348;10.980;2023-08-01T11:52:48;3.53;;;2.20;;
14143;SDS011;7152;48.348;10.980;2023-08-01T11:55:25;3.00;;;2.10;;
14143;SDS011;7152;48.348;10.980;2023-08-01T11:57:53;2.63;;;2.10;;
14143;SDS011;7152;48.348;10.980;2023-08-01T12:00:26;2.87;;;2.57;;
14143;SDS011;7152;48.348;10.980;2023-08-01T12:03:03;3.47;;;2.30;;
14143;SDS011;7152;48.348;10.980;2023-08-01T12:05:30;4.37;;;2.43;;
14143;SDS011;7152;48.348;10.980;2023-08-01T12:08:07;2.57;;;2.10;;
14143;SDS011;7152;48.348;10.980;2023-08-01T12:10:38;2.90;;;2.57;;
14143;SDS011;7152;48.348;10.980;2023-08-01T12:13:20;3.40;;;2.13;;
14143;SDS011;7152;48.348;10.980;2023-08-01T12:15:54;3.03;;;2.50;;
14143;SDS011;7152;48.348;10.980;2023-08-01T12:18:24;3.43;;;2.33;;
14143;SDS011;7152;48.348;10.980;2023-08-01T12:20:51;2.60;;;2.33;;
14143;SDS011;7152;48.348;10.980;2023-08-01T12:23:17;3.83;;;2.60;;
14143;SDS011;7152;48.348;10.980;2023-08-01T12:25:44;4.13;;;2.90;;
14143;SDS011;7152;48.348;10.980;2023-08-01T12:28:12;3.47;;;2.73;;
14143;SDS011;7152;48.348;10.980;2023-08-01T12:30:41;4.63;;;3.13;;
14143;SDS011;7152;48.348;10.980;2023-08-01T12:33:08;4.23;;;3.30;;
14143;SDS011;7152;48.348;10.980;2023-08-01T12:35:38;3.20;;;2.93;;
14143;SDS011;7152;48.348;10.980;2023-08-01T12:38:04;3.37;;;3.03;;
14143;SDS011;7152;48.348;10.980;2023-08-01T12:40:30;3.23;;;2.93;;
14143;SDS011;7152;48.348;10.980;2023-08-01T12:42:56;3.13;;;2.83;;
14143;SDS011;7152;48.348;10.980;2023-08-01T12:45:22;3.93;;;2.77;;
14143;SDS011;7152;48.348;10.980;2023-08-01T12:47:48;3.93;;;3.37;;
14143;SDS011;7152;48.348;10.980;2023-08-01T12:50:14;3.83;;;3.10;;
14143;SDS011;7152;48.348;10.980;2023-08-01T12:52:41;2.87;;;2.57;;
14143;SDS011;7152;48.348;10.980;2023-08-01T12:55:07;3.67;;;2.60;;
14143;SDS011;7152;48.348;10.980;2023-08-01T12:57:33;2.67;;;2.17;;
14143;SDS011;7152;48.348;10.980;2023-08-01T12:59:59;2.80;;;2.40;;
14143;SDS011;7152;48.348;10.980;2023-08-01T13:02:26;3.13;;;2.40;;
14143;SDS011;7152;48.348;10.980;2023-08-01T13:04:52;2.70;;;2.50;;
14143;SDS011;7152;48.348;10.980;2023-08-01T13:07:18;3.20;;;2.50;;
14143;SDS011;7152;48.348;10.980;2023-08-01T13:09:44;2.70;;;2.50;;
14143;SDS011;7152;48.348;10.980;2023-08-01T13:12:10;3.37;;;2.63;;
14143;SDS011;7152;48.348;10.980;2023-08-01T13:14:36;2.80;;;2.50;;
14143;SDS011;7152;48.348;10.980;2023-08-01T13:17:02;3.00;;;2.70;;
14143;SDS011;7152;48.348;10.980;2023-08-01T13:19:28;2.93;;;2.70;;
14143;SDS011;7152;48.348;10.980;2023-08-01T13:21:54;3.53;;;3.23;;
14143;SDS011;7152;48.348;10.980;2023-08-01T13:24:19;4.53;;;3.30;;
14143;SDS011;7152;48.348;10.980;2023-08-01T13:26:45;5.33;;;3.80;;
14143;SDS011;7152;48.348;10.980;2023-08-01T13:29:11;4.97;;;3.70;;
14143;SDS011;7152;48.348;10.980;2023-08-01T13:31:37;3.73;;;3.00;;
14143;SDS011;7152;48.348;10.980;2023-08-01T13:34:03;3.87;;;3.47;;
14143;SDS011;7152;48.348;10.980;2023-08-01T13:36:28;5.37;;;3.33;;
14143;SDS011;7152;48.348;10.980;2023-08-01T13:38:54;3.57;;;2.77;;
14143;SDS011;7152;48.348;10.980;2023-08-01T13:41:20;3.53;;;2.40;;
14143;SDS011;7152;48.348;10.980;2023-08-01T13:43:46;2.60;;;2.30;;
14143;SDS011;7152;48.348;10.980;2023-08-01T13:46:13;3.10;;;2.20;;
14143;SDS011;7152;48.348;10.980;2023-08-01T13:48:43;2.90;;;2.33;;
14143;SDS011;7152;48.348;10.980;2023-08-01T13:51:10;2.50;;;2.20;;
14143;SDS011;7152;48.348;10.980;2023-08-01T13:53:36;2.40;;;1.63;;
14143;SDS011;7152;48.348;10.980;2023-08-01T13:56:09;2.07;;;1.70;;
14143;SDS011;7152;48.348;10.980;2023-08-01T13:58:37;1.77;;;1.10;;
14143;SDS011;7152;48.348;10.980;2023-08-01T14:01:04;1.83;;;1.53;;
14143;SDS011;7152;48.348;10.980;2023-08-01T14:03:32;3.13;;;1.00;;
14143;SDS011;7152;48.348;10.980;2023-08-01T14:06:07;0.87;;;0.87;;
14143;SDS011;7152;48.348;10.980;2023-08-01T14:08:36;1.47;;;1.00;;
14143;SDS011;7152;48.348;10.980;2023-08-01T14:11:03;1.00;;;1.00;;
14143;SDS011;7152;48.348;10.980;2023-08-01T14:13:29;2.30;;;1.10;;
14143;SDS011;7152;48.348;10.980;2023-08-01T14:15:55;1.20;;;1.10;;
14143;SDS011;7152;48.348;10.980;2023-08-01T14:18:21;2.80;;;1.23;;
14143;SDS011;7152;48.348;10.980;2023-08-01T14:20:47;1.17;;;1.00;;
14143;SDS011;7152;48.348;10.980;2023-08-01T14:23:13;2.20;;;1.50;;
14143;SDS011;7152;48.348;10.980;2023-08-01T14:25:39;1.33;;;1.20;;
14143;SDS011;7152;48.348;10.980;2023-08-01T14:28:05;1.17;;;1.08;;
14143;SDS011;7152;48.348;10.980;2023-08-01T14:30:31;1.67;;;1.30;;
14143;SDS011;7152;48.348;10.980;2023-08-01T14:33:03;1.40;;;0.90;;
14143;SDS011;7152;48.348;10.980;2023-08-01T14:35:31;2.00;;;1.10;;
14143;SDS011;7152;48.348;10.980;2023-08-01T14:37:58;1.67;;;1.10;;
14143;SDS011;7152;48.348;10.980;2023-08-01T14:40:24;1.30;;;1.20;;
14143;SDS011;7152;48.348;10.980;2023-08-01T14:42:51;1.30;;;1.20;;
14143;SDS011;7152;48.348;10.980;2023-08-01T14:45:17;1.92;;;1.20;;
14143;SDS011;7152;48.348;10.980;2023-08-01T14:47:43;1.60;;;1.30;;
14143;SDS011;7152;48.348;10.980;2023-08-01T14:50:10;1.23;;;1.10;;
14143;SDS011;7152;48.348;10.980;2023-08-01T14:52:40;1.15;;;1.05;;
14143;SDS011;7152;48.348;10.980;2023-08-01T14:55:07;1.20;;;1.00;;